Time;durP1;ratioP1;P1;durP2;ratioP2;P2;SDS_P1;SDS_P2;PMS_P1;PMS_P2;Temp;Humidity;BMP_temperature;BMP_pressure;BME280_temperature;BME280_humidity;BME280_pressure;Samples;Min_cycle;Max_cycle;Signal;HPM_P1;HPM_P2
2020/12/05 00:02:18;;;;;;;1.70;1.52;;;4.70;99.90;;;;;;5036709;28;20076;-85
2020/12/05 00:04:43;;;;;;;2.00;1.60;;;4.70;1.00;;;;;;5046632;28;20362;-86
2020/12/05 00:07:09;;;;;;;1.75;1.45;;;4.70;1.00;;;;;;5046429;28;20030;-85
2020/12/05 00:09:35;;;;;;;3.38;1.73;;;4.70;99.90;;;;;;5044463;28;20052;-85
2020/12/05 00:12:02;;;;;;;2.75;1.90;;;4.70;1.00;;;;;;5044142;28;20080;-87
2020/12/05 00:14:28;;;;;;;2.22;1.70;;;4.60;1.00;;;;;;5033704;28;20044;-86
2020/12/05 00:16:53;;;;;;;1.85;1.73;;;4.60;99.90;;;;;;5038516;28;20053;-86
2020/12/05 00:19:19;;;;;;;1.85;1.73;;;4.60;99.90;;;;;;5042362;28;20037;-85
2020/12/05 00:21:45;;;;;;;2.30;2.10;;;4.60;1.00;;;;;;5036110;28;20066;-86
2020/12/05 00:24:11;;;;;;;2.22;2.03;;;4.70;99.90;;;;;;5050241;28;20027;-85
2020/12/05 00:26:37;;;;;;;2.45;1.70;;;4.80;99.90;;;;;;5041871;28;20400;-84
2020/12/05 00:29:02;;;;;;;2.17;1.80;;;4.80;99.90;;;;;;5031334;28;20109;-85
2020/12/05 00:31:28;;;;;;;3.08;2.15;;;4.80;99.90;;;;;;5021435;28;20044;-85
2020/12/05 00:33:54;;;;;;;2.17;1.98;;;4.80;99.90;;;;;;5031893;28;20057;-85
2020/12/05 00:36:20;;;;;;;2.53;2.25;;;4.80;1.00;;;;;;5032200;28;20477;-83
2020/12/05 00:38:47;;;;;;;3.25;2.20;;;4.80;99.90;;;;;;5045925;28;20100;-85
2020/12/05 00:41:17;;;;;;;2.35;2.13;;;4.80;1.00;;;;;;5039123;28;20029;-84
2020/12/05 00:43:43;;;;;;;3.15;2.83;;;4.80;1.00;;;;;;5032082;28;20041;-85
2020/12/05 00:46:09;;;;;;;3.25;2.50;;;4.80;1.00;;;;;;5032191;28;20040;-85
2020/12/05 00:48:34;;;;;;;2.58;2.38;;;4.80;99.90;;;;;;5025276;28;20440;-85
2020/12/05 00:51:00;;;;;;;2.83;2.40;;;4.70;99.90;;;;;;5040553;28;20538;-85
2020/12/05 00:53:26;;;;;;;2.90;2.60;;;4.70;99.90;;;;;;5051865;28;20108;-85
2020/12/05 00:55:51;;;;;;;2.72;2.53;;;4.70;99.90;;;;;;5030912;28;20025;-85
2020/12/05 00:58:17;;;;;;;2.47;2.28;;;4.70;1.00;;;;;;5032423;28;20025;-85
2020/12/05 01:00:43;;;;;;;3.50;2.50;;;4.70;99.90;;;;;;5031571;28;20021;-85
2020/12/05 01:03:09;;;;;;;3.75;2.72;;;4.70;1.00;;;;;;5032807;28;20401;-85
2020/12/05 01:05:35;;;;;;;4.68;2.92;;;4.70;99.90;;;;;;5031743;28;20371;-84
2020/12/05 01:08:05;;;;;;;2.90;2.58;;;4.70;99.90;;;;;;5032260;28;20079;-85
2020/12/05 01:10:32;;;;;;;3.20;2.70;;;4.70;1.00;;;;;;5018083;28;20080;-84
2020/12/05 01:12:58;;;;;;;2.75;2.45;;;4.70;1.00;;;;;;5035796;28;20092;-85
2020/12/05 01:15:23;;;;;;;2.85;2.65;;;4.70;1.00;;;;;;5031081;28;20505;-85
2020/12/05 01:17:49;;;;;;;2.95;2.70;;;4.80;99.90;;;;;;5031426;28;20489;-85
2020/12/05 01:20:15;;;;;;;4.10;3.00;;;4.80;99.90;;;;;;5032891;28;20107;-85
2020/12/05 01:22:40;;;;;;;4.00;3.17;;;4.80;99.90;;;;;;5030228;28;20037;-85
2020/12/05 01:25:08;;;;;;;3.22;2.92;;;4.60;1.00;;;;;;5024168;28;20032;-85
2020/12/05 01:27:34;;;;;;;3.58;3.28;;;4.60;1.00;;;;;;5051146;28;20025;-85
2020/12/05 01:29:59;;;;;;;3.95;3.13;;;4.50;1.00;;;;;;5019269;28;20486;-85
2020/12/05 01:32:25;;;;;;;5.72;3.38;;;4.50;1.00;;;;;;5013072;28;20026;-84
2020/12/05 01:34:51;;;;;;;3.47;3.17;;;4.60;1.00;;;;;;5019027;28;20025;-85
2020/12/05 01:37:16;;;;;;;3.65;3.28;;;4.60;1.00;;;;;;5045907;28;20532;-85
2020/12/05 01:39:42;;;;;;;5.07;3.25;;;4.60;1.00;;;;;;5031709;28;20096;-85
2020/12/05 01:42:08;;;;;;;5.22;3.25;;;4.60;1.00;;;;;;5019788;28;20069;-85
2020/12/05 01:44:33;;;;;;;4.35;3.30;;;4.70;99.90;;;;;;5011508;28;20022;-84
2020/12/05 01:47:00;;;;;;;3.25;2.95;;;4.60;1.00;;;;;;5013044;28;20433;-85
2020/12/05 01:49:26;;;;;;;3.58;3.22;;;4.60;1.00;;;;;;5011632;28;20379;-85
2020/12/05 01:51:52;;;;;;;3.30;3.00;;;4.60;99.90;;;;;;5011570;28;20022;-85
2020/12/05 01:54:18;;;;;;;4.05;3.13;;;4.60;1.00;;;;;;5011571;28;20022;-85
2020/12/05 01:56:55;;;;;;;3.20;2.90;;;4.50;1.00;;;;;;5012575;28;20026;-85
2020/12/05 01:59:20;;;;;;;3.20;2.70;;;4.60;1.00;;;;;;5011448;28;20393;-85
2020/12/05 02:01:46;;;;;;;3.28;2.95;;;4.60;1.00;;;;;;5012844;28;20029;-85
2020/12/05 02:04:12;;;;;;;4.25;3.10;;;4.70;1.00;;;;;;5011268;28;20033;-85
2020/12/05 02:07:15;;;;;;;4.03;3.10;;;4.70;1.00;;;;;;5012362;28;20026;-85
2020/12/05 02:09:49;;;;;;;3.35;2.90;;;4.80;1.00;;;;;;4998547;28;20042;-85
2020/12/05 02:12:32;;;;;;;3.20;2.80;;;4.80;1.00;;;;;;5001485;28;20045;-85
2020/12/05 02:15:16;;;;;;;3.80;2.85;;;4.90;1.00;;;;;;4991111;28;20069;-85
2020/12/05 02:18:03;;;;;;;3.67;3.20;;;4.90;1.00;;;;;;5003242;28;20025;-84
2020/12/05 02:20:37;;;;;;;3.33;3.03;;;4.90;1.00;;;;;;5017415;28;20084;-84
2020/12/05 02:23:12;;;;;;;5.20;3.30;;;5.00;1.00;;;;;;5002107;28;20121;-85
2020/12/05 02:25:45;;;;;;;3.40;2.80;;;5.00;1.00;;;;;;4977839;28;20045;-85
2020/12/05 02:28:11;;;;;;;3.45;2.90;;;5.00;1.00;;;;;;4994760;28;20046;-85
2020/12/05 02:30:37;;;;;;;3.58;3.03;;;5.00;1.00;;;;;;4985130;28;20034;-85
2020/12/05 02:33:04;;;;;;;3.08;2.78;;;5.00;99.90;;;;;;5014050;28;20125;-84
2020/12/05 02:35:30;;;;;;;3.85;3.42;;;5.10;99.90;;;;;;4997586;28;20560;-85
2020/12/05 02:38:20;;;;;;;3.60;2.97;;;5.00;99.90;;;;;;5013883;28;20054;-85
2020/12/05 02:40:46;;;;;;;3.97;3.25;;;5.10;1.00;;;;;;4996753;28;20053;-85
2020/12/05 02:43:12;;;;;;;3.85;3.20;;;5.00;99.90;;;;;;4997411;28;20484;-85
2020/12/05 02:45:39;;;;;;;3.33;2.97;;;5.00;1.00;;;;;;5014168;28;20057;-85
2020/12/05 02:48:09;;;;;;;4.57;3.10;;;5.00;1.00;;;;;;5018351;28;20394;-85
2020/12/05 02:50:35;;;;;;;3.20;2.90;;;4.90;1.00;;;;;;5054301;28;20025;-84
2020/12/05 02:53:01;;;;;;;3.72;2.67;;;5.00;99.90;;;;;;5033875;28;20030;-84
2020/12/05 02:55:26;;;;;;;4.70;3.05;;;5.00;99.90;;;;;;5014066;28;20030;-85
2020/12/05 02:57:52;;;;;;;3.33;2.80;;;5.00;99.90;;;;;;5015523;28;20524;-85
2020/12/05 03:00:18;;;;;;;3.58;2.80;;;5.00;99.90;;;;;;5018668;28;20108;-85
2020/12/05 03:02:44;;;;;;;3.20;2.58;;;5.00;1.00;;;;;;5015100;28;20033;-84
2020/12/05 03:05:10;;;;;;;4.22;3.30;;;5.00;1.00;;;;;;5035398;28;20021;-85
2020/12/05 03:07:35;;;;;;;3.20;2.90;;;5.00;1.00;;;;;;5035106;28;20022;-85
2020/12/05 03:10:01;;;;;;;3.15;2.85;;;5.00;99.90;;;;;;5015699;28;20486;-85
2020/12/05 03:12:27;;;;;;;3.70;3.30;;;5.00;99.90;;;;;;5032809;28;20049;-84
2020/12/05 03:14:52;;;;;;;3.92;3.20;;;5.00;1.00;;;;;;5022590;28;20017;-85
2020/12/05 03:17:18;;;;;;;4.05;3.15;;;5.00;1.00;;;;;;5049481;28;20022;-85
2020/12/05 03:19:44;;;;;;;4.63;3.10;;;5.00;99.90;;;;;;5028308;28;20024;-84
2020/12/05 03:22:09;;;;;;;5.32;3.15;;;5.00;99.90;;;;;;5050041;28;20055;-85
2020/12/05 03:24:35;;;;;;;7.20;2.80;;;5.00;99.90;;;;;;5026668;28;20026;-85
2020/12/05 03:27:01;;;;;;;3.22;2.55;;;5.10;1.00;;;;;;5013714;28;20022;-85
2020/12/05 03:29:26;;;;;;;3.42;2.50;;;5.10;1.00;;;;;;5020880;28;20390;-85
2020/12/05 03:34:21;;;;;;;2.30;2.10;;;5.20;99.90;;;;;;5055131;28;20025;-85
2020/12/05 03:36:46;;;;;;;3.67;2.50;;;5.20;99.90;;;;;;5053224;28;20025;-84
2020/12/05 03:39:12;;;;;;;2.88;2.35;;;5.10;99.90;;;;;;5052923;28;20025;-85
2020/12/05 03:41:38;;;;;;;3.80;2.40;;;5.10;99.90;;;;;;5054701;28;20512;-85
2020/12/05 03:44:04;;;;;;;2.90;2.50;;;5.20;99.90;;;;;;5032088;28;20524;-85
2020/12/05 03:46:30;;;;;;;3.58;2.40;;;5.20;99.90;;;;;;5034621;28;20053;-85
2020/12/05 03:48:56;;;;;;;2.67;2.47;;;5.20;99.90;;;;;;5034187;28;20030;-85
2020/12/05 03:51:22;;;;;;;3.80;2.78;;;5.10;99.90;;;;;;5033119;28;20042;-85
2020/12/05 03:53:48;;;;;;;2.63;2.42;;;5.00;1.00;;;;;;5033022;28;20074;-85
2020/12/05 03:56:13;;;;;;;2.90;2.60;;;5.00;99.90;;;;;;5033102;28;20029;-85
2020/12/05 03:58:39;;;;;;;3.35;2.88;;;4.80;1.00;;;;;;5033050;28;20030;-85
2020/12/05 04:01:06;;;;;;;3.90;2.60;;;4.80;1.00;;;;;;5032848;28;20026;-85
2020/12/05 04:03:31;;;;;;;3.25;2.88;;;4.70;1.00;;;;;;5034311;28;20013;-85
2020/12/05 04:05:57;;;;;;;3.08;2.72;;;4.60;1.00;;;;;;5033940;28;20512;-85
2020/12/05 04:08:23;;;;;;;3.30;2.60;;;4.60;1.00;;;;;;5032631;28;20080;-85
2020/12/05 04:10:49;;;;;;;3.65;2.80;;;4.60;1.00;;;;;;5032309;28;20531;-85
2020/12/05 04:13:14;;;;;;;3.58;2.85;;;4.50;1.00;;;;;;5042075;28;20103;-85
2020/12/05 04:15:40;;;;;;;4.13;3.35;;;4.50;1.00;;;;;;5032719;28;20116;-85
2020/12/05 04:18:06;;;;;;;4.10;2.90;;;4.40;1.00;;;;;;5020446;28;20057;-85
2020/12/05 04:20:32;;;;;;;3.53;2.95;;;4.40;1.00;;;;;;5014201;28;20036;-85
2020/12/05 04:22:57;;;;;;;4.45;3.30;;;4.40;1.00;;;;;;5012474;28;20023;-85
2020/12/05 04:25:23;;;;;;;3.47;3.00;;;4.40;1.00;;;;;;5029765;28;20432;-85
2020/12/05 04:27:50;;;;;;;3.75;2.92;;;4.40;1.00;;;;;;5033304;28;20067;-85
2020/12/05 04:30:15;;;;;;;3.38;3.05;;;4.30;1.00;;;;;;5032383;28;20029;-85
2020/12/05 04:32:41;;;;;;;3.92;2.95;;;4.20;1.00;;;;;;5032326;28;20492;-85
2020/12/05 04:35:07;;;;;;;3.78;3.05;;;4.20;1.00;;;;;;5032351;28;20025;-84
2020/12/05 04:37:33;;;;;;;3.45;2.90;;;4.20;1.00;;;;;;5031219;28;20025;-85
2020/12/05 04:39:58;;;;;;;3.30;3.00;;;4.10;1.00;;;;;;5031060;28;20070;-85
2020/12/05 04:42:24;;;;;;;3.22;2.90;;;4.10;1.00;;;;;;5030099;28;20037;-84
2020/12/05 04:44:50;;;;;;;3.63;3.08;;;4.00;1.00;;;;;;5021161;28;20067;-84
2020/12/05 04:47:16;;;;;;;4.43;3.33;;;4.10;1.00;;;;;;5043481;28;20021;-85
2020/12/05 04:49:43;;;;;;;3.83;3.40;;;4.00;1.00;;;;;;5042595;28;20049;-85
2020/12/05 04:52:23;;;;;;;3.63;3.10;;;3.90;1.00;;;;;;5022289;28;20045;-84
2020/12/05 04:54:53;;;;;;;4.22;3.10;;;3.90;1.00;;;;;;5012577;28;20022;-84
2020/12/05 04:57:23;;;;;;;4.13;3.10;;;3.90;1.00;;;;;;5016382;28;20029;-84
2020/12/05 04:59:50;;;;;;;3.17;2.72;;;4.00;1.00;;;;;;5032332;28;20044;-85
2020/12/05 05:02:19;;;;;;;4.38;2.88;;;4.00;1.00;;;;;;5033105;28;20032;-85
2020/12/05 05:04:47;;;;;;;4.45;3.13;;;4.10;1.00;;;;;;5032844;28;20432;-85
2020/12/05 05:07:15;;;;;;;3.05;2.67;;;4.10;1.00;;;;;;5026529;28;20030;-85
2020/12/05 05:09:50;;;;;;;2.90;2.60;;;4.10;1.00;;;;;;5033960;28;20053;-85
2020/12/05 05:12:29;;;;;;;4.07;3.10;;;4.10;1.00;;;;;;5042054;28;20060;-84
2020/12/05 05:14:55;;;;;;;3.38;2.78;;;4.10;1.00;;;;;;5015956;28;20033;-85
2020/12/05 05:17:21;;;;;;;3.47;2.90;;;4.20;1.00;;;;;;5022579;28;20418;-85
2020/12/05 05:19:46;;;;;;;4.07;3.25;;;4.20;1.00;;;;;;5011489;28;20026;-85
2020/12/05 05:22:19;;;;;;;3.75;3.03;;;4.20;1.00;;;;;;5013186;28;20109;-85
2020/12/05 05:25:03;;;;;;;3.80;3.30;;;4.20;1.00;;;;;;5013199;28;20080;-85
2020/12/05 05:27:29;;;;;;;4.95;3.20;;;4.20;1.00;;;;;;5020346;28;20036;-85
2020/12/05 05:30:07;;;;;;;4.35;3.40;;;4.20;1.00;;;;;;5031187;28;20021;-84
2020/12/05 05:32:41;;;;;;;3.92;2.92;;;4.20;1.00;;;;;;5019514;28;20022;-84
2020/12/05 05:35:12;;;;;;;4.22;3.00;;;4.10;1.00;;;;;;5011568;28;20030;-85
2020/12/05 05:37:39;;;;;;;3.13;2.75;;;4.10;1.00;;;;;;5011664;28;20481;-85
2020/12/05 05:40:07;;;;;;;4.90;3.15;;;4.20;1.00;;;;;;5011783;28;20042;-84
2020/12/05 05:42:36;;;;;;;4.40;2.70;;;4.20;1.00;;;;;;5025579;28;20079;-85
2020/12/05 05:45:25;;;;;;;3.88;2.80;;;4.20;1.00;;;;;;5032739;28;20067;-84
2020/12/05 05:48:02;;;;;;;4.53;3.05;;;4.20;1.00;;;;;;5032882;28;20025;-85
2020/12/05 05:50:35;;;;;;;4.28;3.40;;;4.10;1.00;;;;;;5035633;28;20017;-85
2020/12/05 05:53:03;;;;;;;4.03;3.13;;;4.10;1.00;;;;;;5035792;28;20026;-84
2020/12/05 05:55:48;;;;;;;4.15;3.00;;;4.00;1.00;;;;;;5033996;28;20048;-84
2020/12/05 05:58:16;;;;;;;4.20;3.20;;;4.00;1.00;;;;;;5036293;28;20079;-84
2020/12/05 06:00:46;;;;;;;5.95;3.03;;;4.00;1.00;;;;;;5036462;28;20426;-84
2020/12/05 06:03:26;;;;;;;3.85;3.35;;;3.90;1.00;;;;;;5034981;28;20042;-84
2020/12/05 06:06:01;;;;;;;3.80;3.40;;;3.90;1.00;;;;;;5038435;28;20124;-88
2020/12/05 06:08:29;;;;;;;4.07;3.60;;;3.90;1.00;;;;;;5026103;28;20590;-86
2020/12/05 06:10:57;;;;;;;4.60;3.40;;;3.80;1.00;;;;;;5021702;28;20020;-85
2020/12/05 06:13:28;;;;;;;3.90;3.45;;;3.80;1.00;;;;;;5025735;28;20049;-85
2020/12/05 06:15:55;;;;;;;4.07;3.50;;;3.80;1.00;;;;;;5016326;28;20432;-86
2020/12/05 06:18:21;;;;;;;4.63;3.88;;;3.80;1.00;;;;;;5018594;28;20481;-84
2020/12/05 06:20:48;;;;;;;6.00;4.60;;;3.80;1.00;;;;;;5040857;28;20542;-85
2020/12/05 06:23:37;;;;;;;7.95;5.07;;;3.70;1.00;;;;;;5055731;28;20029;-85
2020/12/05 06:26:06;;;;;;;5.07;4.30;;;3.70;1.00;;;;;;5034801;28;20064;-85
2020/12/05 06:28:32;;;;;;;5.20;4.25;;;3.60;1.00;;;;;;5018771;28;20497;-85
2020/12/05 06:30:58;;;;;;;8.60;6.20;;;3.70;1.00;;;;;;5026110;28;20052;-83
2020/12/05 06:33:42;;;;;;;8.07;6.03;;;3.70;1.00;;;;;;5045357;28;20103;-83
2020/12/05 06:36:26;;;;;;;6.47;5.38;;;3.60;1.00;;;;;;5035601;28;20033;-83
2020/12/05 06:39:17;;;;;;;5.88;5.07;;;3.70;1.00;;;;;;5035530;28;20083;-85
2020/12/05 06:41:45;;;;;;;8.00;5.40;;;3.70;1.00;;;;;;5023996;28;20489;-84
2020/12/05 06:44:13;;;;;;;9.48;6.28;;;3.90;1.00;;;;;;5055456;28;20021;-84
2020/12/05 06:47:00;;;;;;;10.48;6.05;;;3.90;1.00;;;;;;5053689;28;20103;-83
2020/12/05 06:49:36;;;;;;;7.75;5.30;;;3.90;1.00;;;;;;5036795;28;20109;-84
2020/12/05 06:52:31;;;;;;;6.95;5.55;;;3.90;1.00;;;;;;5014542;28;20028;-85
2020/12/05 06:54:59;;;;;;;8.10;6.28;;;3.80;1.00;;;;;;5027000;28;20437;-83
2020/12/05 06:57:27;;;;;;;7.93;5.40;;;3.70;1.00;;;;;;5030996;28;20512;-84
2020/12/05 07:00:24;;;;;;;8.93;6.70;;;3.70;1.00;;;;;;5015595;28;20109;-84
2020/12/05 07:02:55;;;;;;;9.30;6.20;;;3.70;1.00;;;;;;5014093;28;20505;-83
2020/12/05 07:05:23;;;;;;;8.20;5.93;;;3.60;1.00;;;;;;5015491;28;20024;-84
2020/12/05 07:07:51;;;;;;;7.47;4.88;;;3.60;1.00;;;;;;5029248;28;20567;-84
2020/12/05 07:10:18;;;;;;;5.63;4.55;;;3.70;1.00;;;;;;5042211;28;20036;-83
2020/12/05 07:12:44;;;;;;;5.85;4.35;;;3.60;1.00;;;;;;5044920;28;20136;-83
2020/12/05 07:15:26;;;;;;;7.03;4.85;;;3.60;1.00;;;;;;5043413;28;20097;-84
2020/12/05 07:17:58;;;;;;;6.22;4.60;;;3.60;1.00;;;;;;5046747;28;20412;-84
2020/12/05 07:20:25;;;;;;;5.68;4.50;;;3.70;1.00;;;;;;5048686;28;20024;-83
2020/12/05 07:22:55;;;;;;;5.05;4.28;;;3.70;1.00;;;;;;5044881;28;20032;-84
2020/12/05 07:25:21;;;;;;;5.65;4.68;;;3.70;1.00;;;;;;5041073;28;20029;-84
2020/12/05 07:27:47;;;;;;;10.23;6.40;;;4.10;1.00;;;;;;5034808;28;20025;-83
2020/12/05 07:30:13;;;;;;;9.13;7.13;;;3.70;1.00;;;;;;5033385;28;20049;-84
2020/12/05 07:32:41;;;;;;;8.95;7.55;;;3.80;1.00;;;;;;5033372;28;20599;-83
2020/12/05 07:35:18;;;;;;;8.45;7.45;;;3.70;1.00;;;;;;5033327;28;20021;-84
2020/12/05 07:37:45;;;;;;;10.90;8.70;;;3.80;1.00;;;;;;5033235;28;20661;-84
2020/12/05 07:40:11;;;;;;;9.82;7.65;;;3.80;1.00;;;;;;5034008;28;20044;-83
2020/12/05 07:42:42;;;;;;;9.60;6.30;;;3.90;1.00;;;;;;5034336;28;20095;-84
2020/12/05 07:45:14;;;;;;;6.45;5.60;;;3.90;1.00;;;;;;5038175;28;20080;-85
2020/12/05 07:47:40;;;;;;;6.28;5.28;;;4.00;1.00;;;;;;5045305;28;20104;-84
2020/12/05 07:50:08;;;;;;;9.00;5.30;;;4.20;1.00;;;;;;5032726;28;20017;-84
2020/12/05 07:52:34;;;;;;;7.47;5.10;;;4.40;1.00;;;;;;5014204;28;20108;-84
2020/12/05 07:55:02;;;;;;;6.80;4.72;;;5.10;1.00;;;;;;5025571;28;20363;-84
2020/12/05 07:57:29;;;;;;;6.75;5.07;;;6.50;99.90;;;;;;5031436;28;20060;-83
2020/12/05 08:00:03;;;;;;;10.80;8.00;;;7.10;1.00;;;;;;5032223;28;20037;-83
2020/12/05 08:02:36;;;;;;;8.38;6.70;;;6.80;99.90;;;;;;5026950;28;20082;-82
2020/12/05 08:05:07;;;;;;;5.13;4.00;;;7.10;99.90;;;;;;5035478;28;20022;-82
2020/12/05 08:07:45;;;;;;;4.25;3.83;;;6.70;99.90;;;;;;5036368;28;20527;-82
2020/12/05 08:10:16;;;;;;;4.82;3.67;;;6.20;99.90;;;;;;5036943;28;20017;-82
2020/12/05 08:13:05;;;;;;;6.07;5.40;;;6.30;99.90;;;;;;5031467;28;20103;-82
2020/12/05 08:15:33;;;;;;;4.55;4.00;;;6.20;99.90;;;;;;5032832;28;20024;-82
2020/12/05 08:18:01;;;;;;;4.22;3.83;;;5.90;99.90;;;;;;5033367;28;20048;-82
2020/12/05 08:20:28;;;;;;;6.93;5.68;;;5.70;99.90;;;;;;5032129;28;20052;-82
2020/12/05 08:22:54;;;;;;;8.02;6.30;;;5.60;99.90;;;;;;5033738;28;20022;-82
2020/12/05 08:25:20;;;;;;;6.90;6.20;;;5.70;99.90;;;;;;5031973;28;20393;-82
2020/12/05 08:27:46;;;;;;;6.38;5.78;;;5.80;99.90;;;;;;5032786;28;20474;-82
2020/12/05 08:30:12;;;;;;;7.50;6.47;;;5.80;99.90;;;;;;5030847;28;20029;-82
2020/12/05 08:32:40;;;;;;;8.27;6.88;;;5.80;99.90;;;;;;5050911;28;20056;-82
2020/12/05 08:35:11;;;;;;;7.80;6.53;;;5.80;99.90;;;;;;5051896;28;20024;-82
2020/12/05 08:37:45;;;;;;;6.65;5.93;;;6.10;99.90;;;;;;5052940;28;20021;-82
2020/12/05 08:40:18;;;;;;;7.68;6.55;;;6.20;99.90;;;;;;5051673;28;20044;-82
2020/12/05 08:42:48;;;;;;;6.80;5.68;;;6.30;99.90;;;;;;5051401;28;20388;-82
2020/12/05 08:45:19;;;;;;;6.32;5.35;;;6.40;99.90;;;;;;5044653;28;20021;-83
2020/12/05 08:47:51;;;;;;;7.38;5.70;;;6.60;99.90;;;;;;5032611;28;20018;-82
2020/12/05 08:50:33;;;;;;;6.88;5.45;;;6.70;99.90;;;;;;5031503;28;20030;-82
2020/12/05 08:53:00;;;;;;;6.35;5.35;;;6.90;99.90;;;;;;5031439;28;20025;-82
2020/12/05 08:55:28;;;;;;;5.72;4.57;;;7.00;99.90;;;;;;5032857;28;20018;-83
2020/12/05 08:57:56;;;;;;;6.50;5.03;;;7.30;99.90;;;;;;5032099;28;20025;-83
2020/12/05 09:00:22;;;;;;;7.55;5.32;;;7.40;99.90;;;;;;5031664;28;20021;-83
2020/12/05 09:02:48;;;;;;;5.85;5.25;;;7.00;99.90;;;;;;5032527;28;20022;-83
2020/12/05 09:05:13;;;;;;;6.40;5.80;;;6.90;99.90;;;;;;5031219;28;20033;-83
2020/12/05 09:07:39;;;;;;;5.78;5.10;;;6.80;99.90;;;;;;5031990;28;20390;-83
2020/12/05 09:10:16;;;;;;;8.65;5.40;;;6.60;99.90;;;;;;5032406;28;20025;-83
2020/12/05 09:12:41;;;;;;;8.48;5.82;;;6.40;99.90;;;;;;5031078;28;20041;-82
2020/12/05 09:15:07;;;;;;;6.40;5.78;;;6.40;99.90;;;;;;5029970;28;20029;-83
2020/12/05 09:17:34;;;;;;;9.85;5.95;;;6.30;99.90;;;;;;5031206;28;20489;-82
2020/12/05 09:20:19;;;;;;;9.73;6.18;;;6.10;99.90;;;;;;5029512;28;20037;-82
2020/12/05 09:22:47;;;;;;;8.25;6.10;;;5.90;99.90;;;;;;5030894;28;20103;-83
2020/12/05 09:25:28;;;;;;;6.50;5.85;;;5.70;99.90;;;;;;5030768;28;20049;-83
2020/12/05 09:27:53;;;;;;;7.90;6.10;;;5.60;99.90;;;;;;5030526;28;20021;-83
2020/12/05 09:30:19;;;;;;;7.57;6.07;;;5.70;99.90;;;;;;5031154;28;20408;-83
2020/12/05 09:32:47;;;;;;;7.68;5.45;;;5.70;99.90;;;;;;5032189;28;20089;-83
2020/12/05 09:35:15;;;;;;;6.57;5.22;;;5.60;99.90;;;;;;5031054;28;20029;-83
2020/12/05 09:37:41;;;;;;;5.80;5.20;;;5.60;99.90;;;;;;5030818;28;20096;-83
2020/12/05 09:40:08;;;;;;;7.55;6.53;;;5.70;99.90;;;;;;5031825;28;20474;-82
2020/12/05 09:42:34;;;;;;;8.75;6.80;;;5.80;99.90;;;;;;5031961;28;20052;-83
2020/12/05 09:45:00;;;;;;;7.50;6.05;;;5.80;99.90;;;;;;5027568;28;20058;-84
2020/12/05 09:47:25;;;;;;;8.07;6.03;;;5.90;99.90;;;;;;5025959;28;20017;-83
2020/12/05 09:49:51;;;;;;;8.27;6.22;;;6.00;99.90;;;;;;5042021;28;20547;-84
2020/12/05 09:52:17;;;;;;;7.82;6.35;;;6.10;99.90;;;;;;5044729;28;20029;-84
2020/12/05 09:54:43;;;;;;;7.30;5.70;;;5.90;99.90;;;;;;5040044;28;20064;-85
2020/12/05 09:57:09;;;;;;;7.47;6.30;;;5.90;99.90;;;;;;5032112;28;20053;-85
2020/12/05 09:59:35;;;;;;;8.85;7.05;;;6.00;99.90;;;;;;5031212;28;20495;-85
2020/12/05 10:02:04;;;;;;;7.00;6.30;;;6.20;99.90;;;;;;5031107;28;20143;-85
2020/12/05 10:04:30;;;;;;;9.00;6.53;;;6.00;99.90;;;;;;5032452;28;20022;-85
2020/12/05 10:06:56;;;;;;;7.57;6.38;;;5.90;99.90;;;;;;5032312;28;20104;-85
2020/12/05 10:09:21;;;;;;;8.85;6.22;;;5.90;99.90;;;;;;5030678;28;20030;-85
2020/12/05 10:11:47;;;;;;;8.20;6.43;;;5.80;99.90;;;;;;5031975;28;20414;-85
2020/12/05 10:14:13;;;;;;;7.13;6.05;;;5.80;99.90;;;;;;5028939;28;20041;-85
2020/12/05 10:16:38;;;;;;;9.98;6.35;;;5.90;99.90;;;;;;5012247;28;20105;-85
2020/12/05 10:19:04;;;;;;;7.75;6.15;;;6.00;99.90;;;;;;5027808;28;20033;-85
2020/12/05 10:21:31;;;;;;;7.32;6.35;;;5.90;99.90;;;;;;5030560;28;20096;-85
2020/12/05 10:23:56;;;;;;;7.15;6.03;;;5.90;99.90;;;;;;5030702;28;20025;-85
2020/12/05 10:26:22;;;;;;;6.80;6.10;;;5.90;99.90;;;;;;5031292;28;20093;-85
2020/12/05 10:28:47;;;;;;;5.85;5.20;;;6.00;99.90;;;;;;5032867;28;20084;-85
2020/12/05 10:31:13;;;;;;;8.68;5.65;;;5.90;99.90;;;;;;5050855;28;20068;-85
2020/12/05 10:33:39;;;;;;;6.65;5.20;;;5.80;99.90;;;;;;5050455;28;20028;-86
2020/12/05 10:36:05;;;;;;;7.35;5.50;;;6.10;99.90;;;;;;5051368;28;20029;-84
2020/12/05 10:38:30;;;;;;;6.85;5.60;;;6.20;99.90;;;;;;5052464;28;20035;-84
2020/12/05 10:40:56;;;;;;;8.48;5.80;;;6.50;99.90;;;;;;5045353;28;20022;-82
2020/12/05 10:43:22;;;;;;;7.20;5.90;;;6.60;99.90;;;;;;5034335;28;20025;-83
2020/12/05 10:45:48;;;;;;;7.35;5.47;;;6.80;99.90;;;;;;5033987;28;20523;-84
2020/12/05 10:48:14;;;;;;;6.70;5.28;;;7.20;99.90;;;;;;5035510;28;20057;-84
2020/12/05 10:50:40;;;;;;;7.40;5.38;;;7.10;99.90;;;;;;5035610;28;20025;-83
2020/12/05 10:53:09;;;;;;;6.70;5.40;;;7.50;99.90;;;;;;5032479;28;20072;-84
2020/12/05 10:55:34;;;;;;;8.90;6.22;;;8.40;99.90;;;;;;5033397;28;20029;-84
2020/12/05 10:58:00;;;;;;;6.80;5.28;;;7.90;99.90;;;;;;5034794;28;20075;-84
2020/12/05 11:00:26;;;;;;;6.28;5.00;;;8.30;99.90;;;;;;5045036;28;20049;-83
2020/12/05 11:02:51;;;;;;;6.20;5.13;;;9.10;99.90;;;;;;5034640;28;20112;-84
2020/12/05 11:05:17;;;;;;;6.43;5.20;;;9.00;99.90;;;;;;5049168;28;20113;-85
2020/12/05 11:07:43;;;;;;;5.28;4.68;;;9.70;99.90;;;;;;5054273;28;20056;-85
2020/12/05 11:10:08;;;;;;;7.28;5.40;;;10.60;99.90;;;;;;5038913;28;20029;-87
2020/12/05 11:12:34;;;;;;;6.90;5.18;;;10.70;99.90;;;;;;5037338;28;20060;-85
2020/12/05 11:15:00;;;;;;;5.93;5.25;;;10.80;99.90;;;;;;5034114;28;20521;-86
2020/12/05 11:17:25;;;;;;;6.15;5.32;;;12.80;99.90;;;;;;5028484;28;20429;-84
2020/12/05 11:19:51;;;;;;;7.20;5.90;;;11.80;99.90;;;;;;5038048;28;20022;-86
2020/12/05 11:22:17;;;;;;;7.70;6.00;;;11.10;99.90;;;;;;5034319;28;20025;-86
2020/12/05 11:24:42;;;;;;;7.75;6.43;;;10.40;99.90;;;;;;5042872;28;20013;-84
2020/12/05 11:27:08;;;;;;;7.50;6.47;;;10.40;99.90;;;;;;5024487;28;20394;-84
2020/12/05 11:29:34;;;;;;;8.00;6.90;;;10.40;99.90;;;;;;5041424;28;20068;-85
2020/12/05 11:31:59;;;;;;;8.35;6.70;;;9.80;99.90;;;;;;5035319;28;20029;-84
2020/12/05 11:34:25;;;;;;;9.68;6.50;;;9.20;99.90;;;;;;5034512;28;20497;-84
2020/12/05 11:36:51;;;;;;;10.02;7.30;;;8.90;99.90;;;;;;5026422;28;20029;-85
2020/12/05 11:39:16;;;;;;;8.75;7.15;;;8.50;99.90;;;;;;5026812;28;20101;-85
2020/12/05 11:41:42;;;;;;;9.00;7.10;;;8.10;99.90;;;;;;5034202;28;20465;-83
2020/12/05 11:44:08;;;;;;;8.43;6.82;;;7.80;99.90;;;;;;5041089;28;20053;-84
2020/12/05 11:46:34;;;;;;;8.57;6.93;;;7.80;99.90;;;;;;5040732;28;20079;-83
2020/12/05 11:48:59;;;;;;;11.50;7.55;;;7.80;99.90;;;;;;5022922;28;20375;-84
2020/12/05 11:51:29;;;;;;;9.93;7.55;;;7.70;99.90;;;;;;5037432;28;20032;-82
2020/12/05 11:53:55;;;;;;;9.48;7.43;;;7.50;99.90;;;;;;5034775;28;20044;-83
2020/12/05 11:56:23;;;;;;;9.23;7.43;;;7.30;99.90;;;;;;5046258;28;20104;-84
2020/12/05 11:58:49;;;;;;;11.20;8.07;;;7.10;99.90;;;;;;5036248;28;20439;-82
2020/12/05 12:01:15;;;;;;;9.00;6.88;;;7.10;99.90;;;;;;5022258;28;20030;-84
2020/12/05 12:03:41;;;;;;;10.13;7.65;;;6.90;99.90;;;;;;5030194;28;20025;-85
2020/12/05 12:06:19;;;;;;;8.80;7.13;;;6.90;99.90;;;;;;5052464;28;20096;-86
2020/12/05 12:08:44;;;;;;;8.52;6.97;;;6.90;99.90;;;;;;5050458;28;20033;-84
2020/12/05 12:11:19;;;;;;;10.38;7.60;;;6.90;99.90;;;;;;5053609;28;20039;-88
2020/12/05 12:13:45;;;;;;;10.93;7.78;;;7.00;99.90;;;;;;5026038;28;20493;-86
2020/12/05 12:16:12;;;;;;;11.25;7.75;;;7.00;99.90;;;;;;5019687;28;20076;-94
2020/12/05 12:18:38;;;;;;;10.30;8.02;;;6.90;99.90;;;;;;5045508;28;20140;-85
2020/12/05 12:21:03;;;;;;;11.98;8.38;;;6.60;99.90;;;;;;5028278;28;20088;-84
2020/12/05 12:23:29;;;;;;;10.65;8.57;;;6.60;99.90;;;;;;5051758;28;20055;-85
2020/12/05 12:25:54;;;;;;;11.05;8.18;;;6.40;99.90;;;;;;5037220;28;20018;-85
2020/12/05 12:28:20;;;;;;;9.82;8.10;;;6.30;99.90;;;;;;5028048;28;20496;-84
2020/12/05 12:30:46;;;;;;;10.77;8.43;;;6.10;99.90;;;;;;5038803;28;20429;-85
2020/12/05 12:33:13;;;;;;;11.75;8.95;;;6.20;99.90;;;;;;5021818;28;20032;-84
2020/12/05 12:35:39;;;;;;;11.65;8.88;;;6.00;99.90;;;;;;5024826;28;20029;-84
2020/12/05 12:38:05;;;;;;;12.75;9.45;;;5.80;99.90;;;;;;5033562;28;20106;-84
2020/12/05 12:40:31;;;;;;;12.55;9.93;;;5.70;99.90;;;;;;5032006;28;20388;-84
2020/12/05 12:43:00;;;;;;;12.13;9.25;;;5.80;99.90;;;;;;5031885;28;20485;-85
2020/12/05 12:45:30;;;;;;;12.60;9.57;;;5.80;99.90;;;;;;5031874;28;20021;-87
2020/12/05 12:48:39;;;;;;;12.38;9.35;;;5.70;99.90;;;;;;5026942;28;20379;-87
2020/12/05 12:50:45;;;;;;;13.68;10.05;;;5.70;99.90;;;;;;5009703;28;20026;-87
2020/12/05 12:53:11;;;;;;;13.70;10.48;;;5.70;99.90;;;;;;5036852;28;20048;-87
2020/12/05 12:55:38;;;;;;;12.85;9.27;;;5.80;99.90;;;;;;5052471;28;20083;-87
2020/12/05 12:58:10;;;;;;;15.70;10.30;;;5.60;99.90;;;;;;5052524;28;20079;-87
2020/12/05 13:00:36;;;;;;;13.35;9.52;;;5.60;99.90;;;;;;5046140;28;20024;-88
2020/12/05 13:03:02;;;;;;;12.98;9.75;;;5.70;99.90;;;;;;5052458;28;20029;-88
2020/12/05 13:05:28;;;;;;;13.77;10.52;;;5.90;99.90;;;;;;5044965;28;20409;-87
2020/12/05 13:07:53;;;;;;;15.70;11.02;;;5.70;99.90;;;;;;5025787;28;20029;-87
2020/12/05 13:10:19;;;;;;;15.18;11.27;;;5.80;99.90;;;;;;5031783;28;20437;-89